Archdale, North Carolina
Current Conditions -  °F | °C
As of 1:54 PM on Monday 20 Oct 2014 (Local Time) from KGSO Reporting Station
Broken Clouds Broken Clouds  
Wind Chill: 20°   Ceiling: 25000
Heat Index: 20°   Visibility: 10mi
Dew Point:   Wind: 14mph
Humidity: 45%   Direction: 220°SW
Pressure: 30.03"   Gusts: NA
Location:  35.9136°N, 79.9465°W
Report Text: KGSO 201754Z 22012KT 10SM FEW050 BKN250 20/08 A3003 RMK AO2 SLP164 T02000078 10200 20061 58030
Loading
Personal Weather Stations






























Interactive Weather Map
Tropical Storm Tracking
New forecast layout! Learn more

10-Day Weather Forecast

Advertisements
Track Severe Weather on mobile